Time;durP1;ratioP1;P1;durP2;ratioP2;P2;SDS_P1;SDS_P2;PMS_P1;PMS_P2;Temp;Humidity;BMP_temperature;BMP_pressure;BME280_temperature;BME280_humidity;BME280_pressure;Samples;Min_cycle;Max_cycle;Signal;HPM_P1;HPM_P2
2021/05/03 00:01:17;;;;;;;8.27;3.95;;;7.30;99.90;;;;;;5033461;28;20021;-80
2021/05/03 00:03:43;;;;;;;6.63;4.00;;;7.10;99.90;;;;;;5033093;28;20033;-80
2021/05/03 00:06:09;;;;;;;7.05;3.80;;;7.00;99.90;;;;;;5033061;28;20053;-79
2021/05/03 00:08:35;;;;;;;5.65;4.25;;;6.80;99.90;;;;;;5015640;28;20512;-80
2021/05/03 00:11:00;;;;;;;7.85;4.03;;;6.60;99.90;;;;;;5033304;28;20025;-80
2021/05/03 00:13:26;;;;;;;7.05;4.07;;;6.50;99.90;;;;;;5033278;28;20392;-80
2021/05/03 00:15:52;;;;;;;5.05;4.40;;;6.30;99.90;;;;;;5033160;28;20418;-80
2021/05/03 00:18:18;;;;;;;4.47;3.80;;;6.50;99.90;;;;;;5015526;28;20477;-80
2021/05/03 00:20:45;;;;;;;5.90;4.07;;;6.70;99.90;;;;;;5015492;28;20032;-80
2021/05/03 00:23:11;;;;;;;5.78;4.43;;;6.60;99.90;;;;;;5033174;28;20057;-80
2021/05/03 00:25:37;;;;;;;4.85;4.15;;;6.50;99.90;;;;;;5033409;28;20017;-80
2021/05/03 00:28:04;;;;;;;5.65;4.07;;;6.50;99.90;;;;;;5015450;28;20485;-80
2021/05/03 00:30:29;;;;;;;7.88;4.03;;;6.70;99.90;;;;;;5015385;28;20041;-80
2021/05/03 00:32:55;;;;;;;5.60;4.07;;;6.90;99.90;;;;;;5032934;28;20079;-80
2021/05/03 00:35:21;;;;;;;5.28;4.18;;;6.90;99.90;;;;;;5015262;28;20512;-80
2021/05/03 00:37:46;;;;;;;5.78;4.38;;;6.90;99.90;;;;;;5032934;28;20099;-80
2021/05/03 00:40:12;;;;;;;6.45;4.35;;;7.10;99.90;;;;;;5032996;28;20029;-80
2021/05/03 00:42:38;;;;;;;4.55;3.92;;;6.90;99.90;;;;;;5032974;28;20026;-80
2021/05/03 00:45:12;;;;;;;5.45;3.85;;;6.70;99.90;;;;;;5015272;28;20029;-80
2021/05/03 00:47:38;;;;;;;5.50;4.20;;;6.60;99.90;;;;;;5015324;28;20061;-80
2021/05/03 00:50:05;;;;;;;4.03;3.60;;;6.80;99.90;;;;;;5032942;28;20496;-80
2021/05/03 00:52:31;;;;;;;5.07;3.92;;;6.70;99.90;;;;;;5032909;28;20022;-80
2021/05/03 00:54:57;;;;;;;5.60;4.18;;;6.70;99.90;;;;;;5015119;28;20021;-80
2021/05/03 00:57:23;;;;;;;4.35;3.63;;;6.60;99.90;;;;;;5015216;28;20026;-80
2021/05/03 00:59:49;;;;;;;6.05;4.18;;;6.60;99.90;;;;;;5015171;28;20359;-80
2021/05/03 01:02:15;;;;;;;4.93;4.00;;;6.30;99.90;;;;;;5015115;28;20112;-80
2021/05/03 01:04:41;;;;;;;5.13;4.38;;;6.20;99.90;;;;;;5015121;28;20049;-80
2021/05/03 01:07:07;;;;;;;6.95;4.53;;;6.40;99.90;;;;;;5014999;28;20025;-80
2021/05/03 01:09:33;;;;;;;5.13;4.28;;;6.40;99.90;;;;;;5032713;28;20026;-80
2021/05/03 01:11:59;;;;;;;4.57;3.83;;;6.50;99.90;;;;;;5015040;28;20397;-80
2021/05/03 01:14:25;;;;;;;5.60;3.67;;;6.70;99.90;;;;;;5032599;28;20055;-80
2021/05/03 01:16:51;;;;;;;5.45;4.15;;;6.50;99.90;;;;;;5017231;28;20032;-80
2021/05/03 01:19:21;;;;;;;4.88;3.75;;;6.50;99.90;;;;;;5036337;28;20048;-80
2021/05/03 01:21:48;;;;;;;5.07;3.90;;;6.50;99.90;;;;;;5036292;28;20031;-80
2021/05/03 01:24:14;;;;;;;4.50;3.80;;;6.60;99.90;;;;;;5018423;28;20026;-80
2021/05/03 01:26:39;;;;;;;4.85;3.97;;;6.60;99.90;;;;;;5018454;28;20036;-80
2021/05/03 01:29:05;;;;;;;6.43;4.20;;;6.40;99.90;;;;;;5036432;28;20025;-80
2021/05/03 01:31:31;;;;;;;7.10;4.47;;;6.20;99.90;;;;;;5036142;28;20046;-81
2021/05/03 01:34:01;;;;;;;5.47;4.38;;;6.10;99.90;;;;;;5018266;28;20112;-80
2021/05/03 01:36:27;;;;;;;5.38;3.95;;;6.00;99.90;;;;;;5036325;28;20522;-80
2021/05/03 01:38:53;;;;;;;5.70;4.13;;;5.80;99.90;;;;;;5035864;28;20033;-80
2021/05/03 01:41:18;;;;;;;6.18;4.32;;;5.70;99.90;;;;;;5035935;28;20034;-80
2021/05/03 01:43:44;;;;;;;5.88;4.30;;;5.80;99.90;;;;;;5018135;28;20026;-81
2021/05/03 01:46:10;;;;;;;6.28;4.38;;;5.90;99.90;;;;;;5035803;28;20017;-80
2021/05/03 01:48:35;;;;;;;6.65;4.43;;;5.70;99.90;;;;;;5036038;28;20033;-80
2021/05/03 01:51:01;;;;;;;6.30;4.65;;;5.70;99.90;;;;;;5017999;28;20025;-80
2021/05/03 01:53:27;;;;;;;5.82;4.40;;;5.70;99.90;;;;;;5017995;28;20025;-80
2021/05/03 01:55:55;;;;;;;4.72;3.97;;;5.80;99.90;;;;;;5017807;28;20053;-80
2021/05/03 01:58:22;;;;;;;4.88;3.78;;;6.00;99.90;;;;;;5017858;28;20397;-80
2021/05/03 02:00:48;;;;;;;5.00;3.85;;;6.40;99.90;;;;;;5017806;28;20026;-80
2021/05/03 02:03:25;;;;;;;5.05;4.43;;;6.40;99.90;;;;;;5017757;28;20032;-80
2021/05/03 02:05:51;;;;;;;5.38;4.07;;;5.80;99.90;;;;;;5035694;28;20055;-80
2021/05/03 02:08:17;;;;;;;9.52;4.50;;;5.70;99.90;;;;;;5035401;28;20108;-80
2021/05/03 02:10:43;;;;;;;8.60;5.18;;;5.40;99.90;;;;;;5017591;28;20523;-81
2021/05/03 02:13:09;;;;;;;6.55;4.75;;;5.20;99.90;;;;;;5035804;28;20037;-80
2021/05/03 02:15:37;;;;;;;4.63;4.07;;;5.20;99.90;;;;;;5035133;28;20026;-80
2021/05/03 02:18:03;;;;;;;7.18;4.72;;;5.10;99.90;;;;;;5017442;28;20061;-80
2021/05/03 02:20:31;;;;;;;5.85;4.05;;;5.00;99.90;;;;;;5035140;28;20029;-80
2021/05/03 02:22:57;;;;;;;6.32;4.53;;;5.00;99.90;;;;;;5017410;28;20025;-80
2021/05/03 02:25:22;;;;;;;7.13;4.72;;;5.10;99.90;;;;;;5017279;28;20096;-80
2021/05/03 02:27:48;;;;;;;10.10;4.53;;;5.10;99.90;;;;;;5016249;28;20033;-80
2021/05/03 02:30:16;;;;;;;6.18;4.45;;;5.20;99.90;;;;;;5017215;28;20116;-80
2021/05/03 02:32:44;;;;;;;7.75;4.85;;;5.00;99.90;;;;;;5042378;28;20067;-80
2021/05/03 02:35:16;;;;;;;5.53;4.40;;;5.00;99.90;;;;;;5054703;28;20060;-81
2021/05/03 02:37:44;;;;;;;6.75;4.18;;;5.00;99.90;;;;;;5053581;28;20025;-80
2021/05/03 02:40:11;;;;;;;7.00;4.60;;;5.00;99.90;;;;;;5053465;28;20017;-80
2021/05/03 02:42:36;;;;;;;7.18;4.70;;;5.10;99.90;;;;;;5054676;28;20025;-80
2021/05/03 02:45:03;;;;;;;5.95;4.40;;;5.00;99.90;;;;;;5053430;28;20032;-80
2021/05/03 02:47:28;;;;;;;5.68;4.35;;;5.00;99.90;;;;;;5053307;28;20059;-80
2021/05/03 02:49:54;;;;;;;6.75;4.70;;;5.60;99.90;;;;;;5054836;28;20048;-80
2021/05/03 02:52:20;;;;;;;7.22;4.60;;;5.80;99.90;;;;;;5054806;28;20478;-80
2021/05/03 02:54:46;;;;;;;6.30;4.93;;;5.60;99.90;;;;;;5053114;28;20037;-80
2021/05/03 02:57:12;;;;;;;8.95;4.90;;;5.50;99.90;;;;;;5054452;28;20071;-80
2021/05/03 02:59:37;;;;;;;6.25;4.75;;;5.30;99.90;;;;;;5054623;28;20061;-80
2021/05/03 03:02:03;;;;;;;6.57;4.05;;;5.50;99.90;;;;;;5054316;28;20031;-80
2021/05/03 03:04:29;;;;;;;5.95;4.35;;;5.60;99.90;;;;;;5053060;28;20476;-80
2021/05/03 03:06:54;;;;;;;6.97;4.90;;;5.90;99.90;;;;;;5053036;28;20060;-80
2021/05/03 03:09:20;;;;;;;6.65;5.18;;;5.20;99.90;;;;;;5052966;28;20071;-80
2021/05/03 03:11:47;;;;;;;6.57;5.43;;;5.00;99.90;;;;;;5052883;28;20025;-80
2021/05/03 03:14:14;;;;;;;7.60;5.40;;;5.10;99.90;;;;;;5054372;28;20056;-80
2021/05/03 03:16:41;;;;;;;8.18;5.63;;;4.90;99.90;;;;;;5052823;28;20021;-80
2021/05/03 03:19:06;;;;;;;7.93;5.20;;;4.70;99.90;;;;;;5052773;28;20021;-80
2021/05/03 03:21:32;;;;;;;6.20;5.03;;;4.60;99.90;;;;;;5053994;28;20024;-80
2021/05/03 03:23:58;;;;;;;7.05;5.43;;;4.90;99.90;;;;;;5052700;28;20032;-80
2021/05/03 03:26:24;;;;;;;8.15;5.10;;;4.70;99.90;;;;;;5053945;28;20427;-80
2021/05/03 03:28:51;;;;;;;7.85;5.70;;;4.80;99.90;;;;;;5052568;28;20029;-80
2021/05/03 03:31:17;;;;;;;6.47;5.50;;;4.70;99.90;;;;;;5049802;28;20021;-80
2021/05/03 03:33:43;;;;;;;9.70;5.85;;;4.40;99.90;;;;;;5016226;28;20026;-80
2021/05/03 03:36:08;;;;;;;6.65;5.05;;;4.40;99.90;;;;;;5016065;28;20500;-80
2021/05/03 03:38:35;;;;;;;7.60;5.68;;;4.60;99.90;;;;;;5033513;28;20057;-80
2021/05/03 03:41:00;;;;;;;9.32;5.45;;;4.80;99.90;;;;;;5015990;28;20021;-80
2021/05/03 03:43:26;;;;;;;8.68;6.07;;;4.70;99.90;;;;;;5015990;28;20031;-80
2021/05/03 03:45:52;;;;;;;6.13;5.45;;;4.50;99.90;;;;;;5033878;28;20388;-80
2021/05/03 03:48:18;;;;;;;7.13;5.40;;;4.40;99.90;;;;;;5033597;28;20053;-80
2021/05/03 03:50:44;;;;;;;8.15;5.55;;;4.20;99.90;;;;;;5015881;28;20481;-80
2021/05/03 03:53:09;;;;;;;8.65;5.28;;;4.40;99.90;;;;;;5033820;28;20483;-80
2021/05/03 03:55:35;;;;;;;9.52;5.60;;;4.40;99.90;;;;;;5015669;28;20022;-80
2021/05/03 03:58:01;;;;;;;5.68;4.75;;;4.20;99.90;;;;;;5015686;28;20048;-80
2021/05/03 04:00:27;;;;;;;6.82;5.32;;;4.30;99.90;;;;;;5033436;28;20389;-80
2021/05/03 04:02:54;;;;;;;8.52;4.72;;;4.70;99.90;;;;;;5015952;28;20064;-79
2021/05/03 04:07:52;;;;;;;9.10;5.38;;;5.70;99.90;;;;;;5033402;28;20405;-80
2021/05/03 04:26:15;;;;;;;6.57;5.05;;;6.40;99.90;;;;;;5033491;28;20024;-80
2021/05/03 04:28:42;;;;;;;6.25;4.40;;;6.60;99.90;;;;;;5033131;28;20021;-80
2021/05/03 04:31:08;;;;;;;7.80;5.55;;;6.50;99.90;;;;;;5032894;28;20029;-80
2021/05/03 04:33:34;;;;;;;16.67;10.95;;;6.30;99.90;;;;;;5015377;28;20029;-80
2021/05/03 04:36:00;;;;;;;31.33;17.05;;;5.60;99.90;;;;;;5015251;28;20098;-80
2021/05/03 04:38:26;;;;;;;24.05;15.82;;;5.00;99.90;;;;;;5015299;28;20022;-80
2021/05/03 04:40:53;;;;;;;28.80;18.73;;;4.90;99.90;;;;;;5033033;28;20072;-80
2021/05/03 04:43:19;;;;;;;18.73;12.73;;;4.60;99.90;;;;;;5015291;28;20032;-80
2021/05/03 04:45:45;;;;;;;11.85;8.07;;;4.70;99.90;;;;;;5015182;28;20412;-80
2021/05/03 04:48:11;;;;;;;11.27;7.47;;;4.60;99.90;;;;;;5015183;28;20036;-80
2021/05/03 04:50:37;;;;;;;12.23;7.68;;;4.30;99.90;;;;;;5015622;28;20032;-80
2021/05/03 04:53:02;;;;;;;13.18;7.82;;;4.30;99.90;;;;;;5019076;28;20069;-80
2021/05/03 04:55:28;;;;;;;10.90;7.68;;;4.60;99.90;;;;;;5036698;28;20108;-80
2021/05/03 04:57:54;;;;;;;13.82;7.88;;;5.10;99.90;;;;;;5036796;28;20491;-80
2021/05/03 05:00:20;;;;;;;9.30;6.97;;;5.60;99.90;;;;;;5018955;28;20068;-80
2021/05/03 05:02:46;;;;;;;16.83;6.88;;;5.90;99.90;;;;;;5018908;28;20025;-80
2021/05/03 05:05:13;;;;;;;10.30;5.97;;;6.10;99.90;;;;;;5018909;28;20499;-79
2021/05/03 05:07:39;;;;;;;10.48;7.03;;;6.10;99.90;;;;;;5036588;28;20108;-80
2021/05/03 05:10:06;;;;;;;10.75;6.75;;;6.30;99.90;;;;;;5018875;28;20033;-80
2021/05/03 05:12:32;;;;;;;10.82;7.53;;;6.30;99.90;;;;;;5018748;28;20034;-80
2021/05/03 05:14:58;;;;;;;9.38;6.20;;;6.20;99.90;;;;;;5036347;28;20163;-79
2021/05/03 05:17:24;;;;;;;8.32;6.57;;;6.20;99.90;;;;;;5036430;28;20385;-80
2021/05/03 05:19:50;;;;;;;8.05;6.05;;;6.10;99.90;;;;;;5018607;28;20111;-80
2021/05/03 05:22:17;;;;;;;8.48;6.47;;;6.10;99.90;;;;;;5018527;28;20026;-80
2021/05/03 05:24:43;;;;;;;8.18;6.18;;;6.30;99.90;;;;;;5036577;28;20381;-80
2021/05/03 05:27:08;;;;;;;10.85;7.32;;;6.30;99.90;;;;;;5018483;28;20129;-80
2021/05/03 05:29:35;;;;;;;8.80;6.03;;;6.40;99.90;;;;;;5018270;28;20058;-80
2021/05/03 05:32:01;;;;;;;11.45;5.90;;;6.50;99.90;;;;;;5036063;28;20049;-80
2021/05/03 05:34:27;;;;;;;9.40;6.72;;;6.70;99.90;;;;;;5036014;28;20389;-80
2021/05/03 05:36:53;;;;;;;8.48;6.05;;;6.70;99.90;;;;;;5036296;28;20025;-80
2021/05/03 05:39:19;;;;;;;8.15;6.30;;;6.60;99.90;;;;;;5018775;28;20025;-80
2021/05/03 05:41:44;;;;;;;9.82;6.15;;;6.70;99.90;;;;;;5036509;28;20026;-80
2021/05/03 05:44:10;;;;;;;18.52;7.10;;;6.70;99.90;;;;;;5038678;28;20076;-81
2021/05/03 05:46:38;;;;;;;20.13;7.72;;;6.40;99.90;;;;;;5018036;28;20029;-81
2021/05/03 05:49:04;;;;;;;10.98;6.88;;;6.40;99.90;;;;;;5035743;28;20026;-81
2021/05/03 05:51:30;;;;;;;9.77;6.90;;;6.50;99.90;;;;;;5035683;28;20082;-81
2021/05/03 05:53:56;;;;;;;14.23;7.68;;;6.70;99.90;;;;;;5035957;28;20550;-81
2021/05/03 05:56:22;;;;;;;12.77;6.47;;;6.70;99.90;;;;;;5017901;28;20030;-81
2021/05/03 05:58:48;;;;;;;10.15;6.47;;;6.70;99.90;;;;;;5017868;28;20025;-81
2021/05/03 06:01:14;;;;;;;14.38;6.53;;;6.80;99.90;;;;;;5017850;28;20384;-81
2021/05/03 06:03:40;;;;;;;10.32;6.28;;;6.90;99.90;;;;;;5017707;28;20108;-82
2021/05/03 06:06:06;;;;;;;11.48;6.70;;;7.10;99.90;;;;;;5017759;28;20112;-82
2021/05/03 06:08:33;;;;;;;10.27;6.07;;;7.10;99.90;;;;;;5017723;28;20123;-81
2021/05/03 06:10:59;;;;;;;11.93;5.80;;;7.20;99.90;;;;;;5017713;28;20075;-81
2021/05/03 06:13:25;;;;;;;7.43;5.88;;;7.30;99.90;;;;;;5017732;28;20025;-82
2021/05/03 06:15:50;;;;;;;11.98;6.10;;;7.30;99.90;;;;;;5017535;28;20029;-82
2021/05/03 06:18:16;;;;;;;16.73;5.90;;;7.40;99.90;;;;;;5035365;28;20022;-81
2021/05/03 06:20:42;;;;;;;11.20;5.97;;;7.50;99.90;;;;;;5017390;28;20112;-80
2021/05/03 06:23:11;;;;;;;8.43;6.03;;;7.70;99.90;;;;;;5035145;28;20029;-81
2021/05/03 06:25:37;;;;;;;7.65;6.18;;;7.70;99.90;;;;;;5017705;28;20029;-80
2021/05/03 06:28:03;;;;;;;9.95;6.90;;;7.80;99.90;;;;;;5035018;28;20029;-80
2021/05/03 06:30:28;;;;;;;6.40;4.80;;;7.80;99.90;;;;;;5017323;28;20508;-80
2021/05/03 06:32:54;;;;;;;9.50;6.20;;;7.90;99.90;;;;;;5034801;28;20077;-80
2021/05/03 06:35:21;;;;;;;7.80;5.65;;;7.90;99.90;;;;;;5017063;28;20033;-80
2021/05/03 06:37:47;;;;;;;9.85;6.25;;;7.90;99.90;;;;;;5034839;28;20485;-80
2021/05/03 06:40:14;;;;;;;8.88;5.65;;;7.90;99.90;;;;;;5034873;28;20014;-80
2021/05/03 06:42:43;;;;;;;10.93;6.28;;;8.00;99.90;;;;;;5035036;28;20033;-80
2021/05/03 06:45:10;;;;;;;12.57;6.65;;;8.00;99.90;;;;;;5034915;28;20053;-80
2021/05/03 06:47:36;;;;;;;10.25;6.07;;;8.00;99.90;;;;;;5034744;28;20080;-79
2021/05/03 06:50:04;;;;;;;6.93;5.88;;;8.00;99.90;;;;;;5034672;28;20021;-80
2021/05/03 06:52:30;;;;;;;7.10;5.30;;;8.10;99.90;;;;;;5016742;28;20116;-80
2021/05/03 06:54:55;;;;;;;6.60;5.25;;;8.20;99.90;;;;;;5034371;28;20117;-81
2021/05/03 06:57:21;;;;;;;14.38;5.45;;;8.30;99.90;;;;;;5016725;28;20022;-80
2021/05/03 06:59:47;;;;;;;9.23;5.47;;;8.50;99.90;;;;;;5034488;28;20021;-80
2021/05/03 07:02:13;;;;;;;10.10;5.82;;;8.60;99.90;;;;;;5016755;28;20033;-80
2021/05/03 07:04:39;;;;;;;10.63;5.50;;;8.60;99.90;;;;;;5016938;28;20120;-80
2021/05/03 07:07:05;;;;;;;6.85;4.93;;;8.70;99.90;;;;;;5016562;28;20457;-80
2021/05/03 07:09:32;;;;;;;8.57;5.80;;;8.70;99.90;;;;;;5016822;28;20048;-81
2021/05/03 07:11:59;;;;;;;7.35;5.40;;;8.80;99.90;;;;;;5034312;28;20021;-81
2021/05/03 07:14:25;;;;;;;11.00;5.72;;;8.90;99.90;;;;;;5015925;28;20033;-81
2021/05/03 07:16:51;;;;;;;7.07;5.50;;;8.90;99.90;;;;;;5016430;28;20022;-81
2021/05/03 07:19:17;;;;;;;8.27;5.47;;;9.00;99.90;;;;;;5016423;28;20393;-82
2021/05/03 07:21:42;;;;;;;6.53;5.05;;;9.10;99.90;;;;;;5034066;28;20531;-81
2021/05/03 07:24:11;;;;;;;7.35;5.13;;;9.30;99.90;;;;;;5016361;28;20493;-81
2021/05/03 07:26:37;;;;;;;9.70;5.68;;;9.30;99.90;;;;;;5033969;28;20100;-80
2021/05/03 07:29:03;;;;;;;9.00;5.80;;;9.30;99.90;;;;;;5016294;28;20026;-80
2021/05/03 07:31:30;;;;;;;6.03;5.10;;;9.40;99.90;;;;;;5033728;28;20052;-81
2021/05/03 07:33:56;;;;;;;5.85;4.50;;;9.50;99.90;;;;;;5016166;28;20034;-82
2021/05/03 07:36:21;;;;;;;5.47;4.40;;;9.60;99.90;;;;;;5034094;28;20128;-81
2021/05/03 07:38:47;;;;;;;7.75;4.78;;;9.80;99.90;;;;;;5033896;28;20091;-81
2021/05/03 07:41:13;;;;;;;10.55;5.20;;;9.90;99.90;;;;;;5033929;28;20017;-81
2021/05/03 07:43:39;;;;;;;7.95;4.90;;;10.10;99.90;;;;;;5015965;28;20025;-81
2021/05/03 07:46:05;;;;;;;5.53;4.55;;;10.20;99.90;;;;;;5033683;28;20393;-82
2021/05/03 07:48:30;;;;;;;7.05;4.68;;;10.30;99.90;;;;;;5033621;28;20108;-81
2021/05/03 07:50:56;;;;;;;6.57;4.50;;;10.30;99.90;;;;;;5035964;28;20029;-81
2021/05/03 07:53:22;;;;;;;10.45;5.10;;;10.10;99.90;;;;;;5016199;28;20033;-81
2021/05/03 07:55:48;;;;;;;7.32;4.65;;;10.10;99.90;;;;;;5015709;28;20500;-81
2021/05/03 07:58:13;;;;;;;7.70;4.38;;;10.10;99.90;;;;;;5015843;28;20503;-82
2021/05/03 08:00:39;;;;;;;7.55;5.00;;;10.20;99.90;;;;;;5033751;28;20021;-82
2021/05/03 08:03:05;;;;;;;7.20;4.47;;;10.50;99.90;;;;;;5033486;28;20067;-81
2021/05/03 08:05:31;;;;;;;7.13;4.68;;;10.40;99.90;;;;;;5015735;28;20080;-81
2021/05/03 08:07:56;;;;;;;6.05;4.63;;;10.50;99.90;;;;;;5033358;28;20039;-82
2021/05/03 08:10:22;;;;;;;14.57;5.53;;;10.50;99.90;;;;;;5033334;28;20097;-81
2021/05/03 08:12:51;;;;;;;10.38;4.00;;;10.40;99.90;;;;;;5015623;28;20500;-82
2021/05/03 08:15:17;;;;;;;6.53;4.18;;;10.30;99.90;;;;;;5033139;28;20022;-81
2021/05/03 08:17:44;;;;;;;4.97;3.78;;;10.20;99.90;;;;;;5015485;28;20075;-81
2021/05/03 08:20:14;;;;;;;6.05;4.13;;;10.20;99.90;;;;;;5033530;28;20460;-81
2021/05/03 08:22:40;;;;;;;6.65;3.53;;;9.90;99.90;;;;;;5033193;28;20021;-82
2021/05/03 08:25:07;;;;;;;9.40;4.10;;;9.90;99.90;;;;;;5015495;28;20065;-81
2021/05/03 08:27:34;;;;;;;7.55;3.88;;;9.80;99.90;;;;;;5019137;28;20025;-82
2021/05/03 08:30:00;;;;;;;5.10;4.10;;;9.80;99.90;;;;;;5037541;28;20485;-82
2021/05/03 08:32:26;;;;;;;6.45;3.85;;;9.70;99.90;;;;;;5037050;28;20045;-82
2021/05/03 08:34:51;;;;;;;8.85;3.40;;;9.70;99.90;;;;;;5037098;28;20026;-82
2021/05/03 08:37:18;;;;;;;5.75;4.20;;;9.80;99.90;;;;;;5019331;28;20389;-81
2021/05/03 08:39:43;;;;;;;7.05;4.50;;;9.90;99.90;;;;;;5019283;28;20103;-82
2021/05/03 08:42:10;;;;;;;11.05;4.45;;;10.10;99.90;;;;;;5037283;28;20070;-81
2021/05/03 08:44:36;;;;;;;7.63;3.90;;;10.10;99.90;;;;;;5020108;28;20025;-80
2021/05/03 08:47:02;;;;;;;8.00;3.45;;;9.90;99.90;;;;;;5037003;28;20033;-81
2021/05/03 08:56:58;;;;;;;5.25;3.13;;;10.50;99.90;;;;;;5036816;28;20337;-82
2021/05/03 08:59:24;;;;;;;4.50;2.90;;;11.30;99.90;;;;;;5037004;28;20037;-81
2021/05/03 09:01:52;;;;;;;4.13;3.10;;;11.40;99.90;;;;;;5019222;28;20033;-80
2021/05/03 09:04:18;;;;;;;6.00;3.25;;;11.40;99.90;;;;;;5018913;28;20503;-80
2021/05/03 09:07:05;;;;;;;6.18;2.83;;;11.20;98.70;;;;;;5018915;28;20033;-82
2021/05/03 09:09:36;;;;;;;5.00;3.33;;;11.20;99.90;;;;;;5018822;28;20041;-81
2021/05/03 09:12:07;;;;;;;4.47;3.10;;;11.20;99.90;;;;;;5036774;28;20040;-81
2021/05/03 09:14:43;;;;;;;4.00;3.17;;;11.20;99.90;;;;;;5019151;28;20038;-81
2021/05/03 09:17:39;;;;;;;7.40;3.20;;;11.00;99.90;;;;;;5019288;28;20017;-82
2021/05/03 09:20:13;;;;;;;4.63;3.00;;;11.00;99.90;;;;;;5018728;28;20455;-81
2021/05/03 09:22:57;;;;;;;4.68;3.05;;;10.80;99.90;;;;;;5018879;28;20104;-81
2021/05/03 09:25:34;;;;;;;4.53;2.90;;;10.80;99.90;;;;;;5018767;28;20029;-82
2021/05/03 09:28:14;;;;;;;5.68;3.28;;;10.90;99.90;;;;;;5036163;28;20105;-83
2021/05/03 09:30:59;;;;;;;4.10;2.92;;;11.00;99.90;;;;;;5036173;28;20148;-83
2021/05/03 09:33:31;;;;;;;7.85;3.25;;;11.30;99.90;;;;;;5018312;28;20036;-82
2021/05/03 09:36:05;;;;;;;5.55;2.72;;;12.10;98.10;;;;;;5018185;28;20471;-81
2021/05/03 09:38:38;;;;;;;6.35;2.67;;;12.70;98.10;;;;;;5035628;28;20045;-83
2021/05/03 09:41:17;;;;;;;5.10;2.70;;;13.20;97.80;;;;;;5036036;28;20028;-81
2021/05/03 09:43:54;;;;;;;5.35;3.05;;;12.90;96.00;;;;;;5034745;28;20276;-82
2021/05/03 09:46:37;;;;;;;3.05;2.35;;;12.60;94.30;;;;;;5018237;28;20105;-82
2021/05/03 09:49:09;;;;;;;6.20;2.53;;;12.20;93.00;;;;;;5035848;28;20087;-82
2021/05/03 09:51:46;;;;;;;8.02;2.60;;;12.00;94.10;;;;;;5018085;28;20409;-82
2021/05/03 09:54:22;;;;;;;6.35;2.50;;;11.90;95.40;;;;;;5035743;28;20036;-81
2021/05/03 09:56:50;;;;;;;3.97;2.47;;;11.80;95.00;;;;;;5035800;28;20017;-82
2021/05/03 09:59:36;;;;;;;6.43;2.63;;;12.00;94.40;;;;;;5017941;28;20485;-81
2021/05/03 10:02:08;;;;;;;6.40;2.90;;;12.10;94.60;;;;;;5035661;28;20022;-82
2021/05/03 10:04:35;;;;;;;6.32;2.80;;;12.20;95.10;;;;;;5017735;28;20032;-83
2021/05/03 10:07:02;;;;;;;5.28;2.47;;;12.70;94.50;;;;;;5035788;28;20030;-82
2021/05/03 10:09:30;;;;;;;3.72;2.63;;;12.90;94.20;;;;;;5017764;28;20033;-82
2021/05/03 10:11:56;;;;;;;2.83;2.50;;;12.90;92.30;;;;;;5017655;28;20389;-82
2021/05/03 10:14:22;;;;;;;4.05;2.42;;;12.80;92.30;;;;;;5035345;28;20022;-81
2021/05/03 10:16:49;;;;;;;5.45;2.50;;;12.60;91.70;;;;;;5017763;28;20031;-81
2021/05/03 10:19:23;;;;;;;5.10;2.28;;;12.20;92.10;;;;;;5035234;28;20170;-82
2021/05/03 10:21:49;;;;;;;4.28;2.50;;;12.00;95.00;;;;;;5017532;28;20108;-82
2021/05/03 10:24:16;;;;;;;4.60;2.40;;;11.90;94.10;;;;;;5035478;28;20117;-82
2021/05/03 10:26:46;;;;;;;5.78;2.13;;;12.00;94.40;;;;;;5017379;28;20022;-82
2021/05/03 10:29:29;;;;;;;4.80;2.38;;;12.00;94.50;;;;;;5017666;28;20032;-82
2021/05/03 10:31:56;;;;;;;3.55;2.58;;;12.20;94.30;;;;;;5029882;28;20043;-83
2021/05/03 10:34:40;;;;;;;4.72;2.38;;;12.30;91.80;;;;;;5055006;28;20131;-82
2021/05/03 10:37:29;;;;;;;4.20;2.70;;;12.20;91.60;;;;;;5053592;28;20024;-81
2021/05/03 10:39:56;;;;;;;6.05;2.17;;;12.30;91.00;;;;;;5040961;28;20391;-82
2021/05/03 10:42:23;;;;;;;3.40;2.20;;;12.30;90.70;;;;;;5053580;28;20031;-81
2021/05/03 10:45:21;;;;;;;4.80;2.45;;;13.50;90.40;;;;;;5053507;28;20063;-82
2021/05/03 10:47:56;;;;;;;6.10;2.53;;;14.80;89.10;;;;;;5054562;28;20028;-81
2021/05/03 10:50:42;;;;;;;3.97;2.35;;;14.10;82.30;;;;;;5054433;28;20028;-80
2021/05/03 10:53:21;;;;;;;9.88;2.10;;;13.60;80.10;;;;;;5053362;28;20025;-82
2021/05/03 10:56:04;;;;;;;5.07;1.98;;;13.70;82.60;;;;;;5053161;28;20388;-82
2021/05/03 10:58:30;;;;;;;4.65;2.38;;;13.60;81.40;;;;;;5055088;28;20021;-81
2021/05/03 11:00:57;;;;;;;5.35;1.95;;;13.20;83.10;;;;;;5053113;28;20032;-81
2021/05/03 11:03:59;;;;;;;5.80;2.30;;;13.10;83.90;;;;;;5054333;28;20032;-81
2021/05/03 11:06:37;;;;;;;4.15;2.15;;;12.40;85.30;;;;;;5054222;28;20033;-81
2021/05/03 11:09:31;;;;;;;3.88;2.22;;;12.60;87.40;;;;;;5052937;28;20112;-81
2021/05/03 11:11:58;;;;;;;3.60;2.15;;;13.40;85.20;;;;;;5052907;28;20032;-81
2021/05/03 11:14:26;;;;;;;3.42;2.00;;;13.90;86.50;;;;;;5052813;28;20059;-82
2021/05/03 11:17:08;;;;;;;5.10;1.98;;;14.20;83.60;;;;;;5054097;28;20028;-82
2021/05/03 11:20:06;;;;;;;5.22;2.10;;;14.30;83.20;;;;;;5054461;28;20017;-80
2021/05/03 11:23:00;;;;;;;2.83;2.05;;;13.90;81.20;;;;;;5052691;28;20032;-82
2021/05/03 11:25:28;;;;;;;2.92;1.75;;;13.40;79.10;;;;;;5052785;28;20029;-81
2021/05/03 11:30:43;;;;;;;2.92;1.90;;;14.00;77.10;;;;;;5053852;28;20029;-82
2021/05/03 11:33:13;;;;;;;3.13;1.65;;;14.00;79.10;;;;;;5052470;28;20114;-82
2021/05/03 11:35:47;;;;;;;3.13;2.00;;;15.10;77.00;;;;;;5054064;28;20102;-82
2021/05/03 11:46:14;;;;;;;4.05;2.08;;;14.40;71.80;;;;;;5054235;28;20033;-82
2021/05/03 11:48:39;;;;;;;3.00;1.80;;;14.30;73.40;;;;;;5053643;28;20082;-82
2021/05/03 11:51:10;;;;;;;3.58;1.58;;;15.70;70.70;;;;;;5052249;28;20032;-83
2021/05/03 11:53:42;;;;;;;4.05;1.45;;;16.50;69.80;;;;;;5053775;28;20048;-83
2021/05/03 11:56:15;;;;;;;3.60;1.60;;;17.20;65.20;;;;;;5052151;28;20052;-82
2021/05/03 11:58:46;;;;;;;2.05;1.60;;;17.90;60.10;;;;;;5053353;28;20025;-83
2021/05/03 12:01:16;;;;;;;3.20;1.77;;;18.20;63.00;;;;;;5053556;28;20415;-83
2021/05/03 12:03:44;;;;;;;2.33;1.45;;;17.60;59.90;;;;;;5053932;28;20013;-82
2021/05/03 12:06:10;;;;;;;3.00;1.42;;;17.60;62.20;;;;;;5053304;28;20021;-81
2021/05/03 12:08:36;;;;;;;5.18;1.50;;;17.80;58.70;;;;;;5053320;28;20029;-82
2021/05/03 12:11:08;;;;;;;2.63;1.52;;;16.80;59.70;;;;;;5051967;28;20079;-82
2021/05/03 12:13:34;;;;;;;2.45;1.45;;;16.60;60.20;;;;;;5052265;28;20032;-81
2021/05/03 12:16:00;;;;;;;2.55;1.50;;;15.80;60.40;;;;;;5051883;28;20029;-82
2021/05/03 12:18:26;;;;;;;3.42;1.45;;;15.20;63.40;;;;;;5053215;28;20060;-82
2021/05/03 12:20:53;;;;;;;5.30;1.55;;;14.80;64.00;;;;;;5053181;28;20060;-81
2021/05/03 12:23:24;;;;;;;2.20;1.35;;;15.30;65.30;;;;;;5053254;28;20537;-83
2021/05/03 12:25:51;;;;;;;2.10;1.50;;;15.90;64.70;;;;;;5051937;28;20385;-83
2021/05/03 12:28:22;;;;;;;2.63;1.73;;;16.20;60.20;;;;;;5051999;28;20025;-82
2021/05/03 12:30:50;;;;;;;1.95;1.48;;;15.20;59.80;;;;;;5053906;28;20099;-83
2021/05/03 12:33:18;;;;;;;2.58;1.55;;;14.70;60.60;;;;;;5052021;28;20079;-81
2021/05/03 12:35:49;;;;;;;2.78;1.52;;;14.40;59.90;;;;;;5051760;28;20121;-82
2021/05/03 12:38:22;;;;;;;3.42;1.40;;;14.20;66.30;;;;;;5051697;28;20476;-82
2021/05/03 12:40:48;;;;;;;4.03;1.38;;;15.50;63.10;;;;;;5051834;28;20017;-82
2021/05/03 12:43:14;;;;;;;3.60;1.50;;;17.10;61.40;;;;;;5052992;28;20025;-83
2021/05/03 12:46:09;;;;;;;2.38;1.45;;;17.70;58.10;;;;;;5053262;28;20388;-84
2021/05/03 12:48:53;;;;;;;2.08;1.20;;;18.20;56.70;;;;;;5051697;28;20033;-83
2021/05/03 12:51:39;;;;;;;1.83;1.20;;;17.20;55.00;;;;;;5051735;28;20029;-83
2021/05/03 12:59:36;;;;;;;3.40;1.38;;;19.20;52.30;;;;;;5052883;28;20017;-83
2021/05/03 13:05:05;;;;;;;2.72;1.38;;;17.10;55.70;;;;;;5053095;28;20083;-83
2021/05/03 13:30:00;;;;;;;2.17;1.30;;;14.70;63.30;;;;;;5056312;28;20055;-81
2021/05/03 13:32:31;;;;;;;1.85;1.15;;;16.00;58.80;;;;;;5054636;28;20032;-81
2021/05/03 13:35:02;;;;;;;2.08;1.42;;;17.80;56.40;;;;;;5056201;28;20469;-83
2021/05/03 13:37:28;;;;;;;3.97;1.70;;;18.00;54.60;;;;;;5057293;28;20021;-82
2021/05/03 13:39:54;;;;;;;1.70;1.30;;;17.10;54.20;;;;;;5056205;28;20155;-82
2021/05/03 13:42:19;;;;;;;3.53;1.30;;;16.20;57.60;;;;;;5057768;28;20021;-82
2021/05/03 13:44:46;;;;;;;3.75;1.63;;;16.40;57.70;;;;;;5056883;28;20099;-82
2021/05/03 13:47:12;;;;;;;1.85;1.20;;;17.70;54.20;;;;;;5055804;28;20102;-82
2021/05/03 13:49:38;;;;;;;3.22;1.48;;;18.80;52.90;;;;;;5056073;28;20021;-83
2021/05/03 13:52:05;;;;;;;1.20;1.00;;;19.20;53.20;;;;;;5055356;28;20028;-82
2021/05/03 13:54:32;;;;;;;2.33;1.38;;;19.40;53.40;;;;;;5055655;28;20579;-81
2021/05/03 13:56:59;;;;;;;2.40;1.30;;;18.80;50.80;;;;;;5054367;28;20116;-81
2021/05/03 13:59:25;;;;;;;1.90;1.20;;;19.30;50.80;;;;;;5054353;28;20480;-81
2021/05/03 14:01:51;;;;;;;2.55;1.50;;;19.70;51.60;;;;;;5054272;28;20119;-81
2021/05/03 14:04:18;;;;;;;3.00;1.10;;;19.70;49.00;;;;;;5055515;28;20100;-82